Association Sportive et Culturelle de l' Aéroport de Blagnac

Section Vol Moteur

Bienvenue sur le site ASCAB Vol Moteur

LFBO TOULOUSE-BLAGNAC

METAR :
2022/12/05 18:00 LFBO 051800Z AUTO 15004KT CAVOK 06/03 Q1016 NOSIG

TAF :
2022/12/05 18:47 TAF LFBO 051700Z 0518/0624 16004KT CAVOK